Time;durP1;ratioP1;P1;durP2;ratioP2;P2;SDS_P1;SDS_P2;PMS_P1;PMS_P2;Temp;Humidity;BMP_temperature;BMP_pressure;BME280_temperature;BME280_humidity;BME280_pressure;Samples;Min_cycle;Max_cycle;Signal;HPM_P1;HPM_P2
2022/07/02 00:02:21;;;;;;;;;;;11.50;99.90;;;;;;5074819;28;19912;-72
2022/07/02 00:04:52;;;;;;;;;;;11.50;99.90;;;;;;5073845;28;19927;-72
2022/07/02 00:07:19;;;;;;;;;;;11.50;99.90;;;;;;5076142;28;19912;-72
2022/07/02 00:09:46;;;;;;;;;;;11.50;99.90;;;;;;5074846;28;19909;-72
2022/07/02 00:12:13;;;;;;;;;;;11.50;99.90;;;;;;5071225;28;20323;-72
2022/07/02 00:14:40;;;;;;;;;;;11.60;99.90;;;;;;5073114;28;19909;-72
2022/07/02 00:17:07;;;;;;;;;;;11.60;99.90;;;;;;5072243;28;19916;-72
2022/07/02 00:19:36;;;;;;;;;;;11.70;99.90;;;;;;5073897;28;19916;-72
2022/07/02 00:22:02;;;;;;;;;;;11.80;99.90;;;;;;5072995;28;20007;-72
2022/07/02 00:24:29;;;;;;;;;;;11.90;99.90;;;;;;5073239;28;19913;-72
2022/07/02 00:26:59;;;;;;;;;;;12.10;99.90;;;;;;5072315;28;19991;-72
2022/07/02 00:29:44;;;;;;;;;;;12.20;99.90;;;;;;5073542;28;19909;-72
2022/07/02 00:32:11;;;;;;;;;;;12.20;99.90;;;;;;5072681;28;19909;-72
2022/07/02 00:34:38;;;;;;;;;;;12.40;99.90;;;;;;5072744;28;19916;-72
2022/07/02 00:37:08;;;;;;;;;;;12.30;99.90;;;;;;5071661;28;20446;-72
2022/07/02 00:39:35;;;;;;;;;;;12.30;99.90;;;;;;5070497;28;19913;-72
2022/07/02 00:42:03;;;;;;;;;;;12.40;99.90;;;;;;5072178;28;20400;-72
2022/07/02 00:44:31;;;;;;;;;;;12.40;99.90;;;;;;5071957;28;19917;-72
2022/07/02 00:47:08;;;;;;;;;;;12.40;99.90;;;;;;5071794;28;20003;-72
2022/07/02 00:49:37;;;;;;;;;;;12.50;99.90;;;;;;5072249;28;20430;-72
2022/07/02 00:52:04;;;;;;;;;;;12.50;99.90;;;;;;5071961;28;20292;-72
2022/07/02 00:54:31;;;;;;;;;;;12.50;99.90;;;;;;5071856;28;19966;-72
2022/07/02 00:56:58;;;;;;;;;;;12.60;99.90;;;;;;5071892;28;19916;-72
2022/07/02 00:59:25;;;;;;;;;;;12.60;99.90;;;;;;5071987;28;19913;-72
2022/07/02 01:01:53;;;;;;;;;;;12.60;99.90;;;;;;5069756;28;19912;-72
2022/07/02 01:04:20;;;;;;;;;;;12.70;99.90;;;;;;5071519;28;19916;-72
2022/07/02 01:06:48;;;;;;;;;;;12.70;99.90;;;;;;5071954;28;20381;-72
2022/07/02 01:12:03;;;;;;;;;;;12.80;99.90;;;;;;5072789;28;19959;-72
2022/07/02 01:14:31;;;;;;;;;;;12.90;99.90;;;;;;5072375;28;19922;-72
2022/07/02 01:16:57;;;;;;;;;;;13.00;99.90;;;;;;5072845;28;19913;-72
2022/07/02 01:19:24;;;;;;;;;;;13.00;99.90;;;;;;5071913;28;20082;-72
2022/07/02 01:22:06;;;;;;;;;;;13.00;99.90;;;;;;5070441;28;19912;-73
2022/07/02 01:24:33;;;;;;;;;;;13.10;99.90;;;;;;5072619;28;19913;-73
2022/07/02 01:27:00;;;;;;;;;;;13.10;99.90;;;;;;5072831;28;19908;-72
2022/07/02 01:29:27;;;;;;;;;;;13.10;99.90;;;;;;5072797;28;20455;-72
2022/07/02 01:31:54;;;;;;;;;;;13.20;99.90;;;;;;5072396;28;19912;-72
2022/07/02 01:34:21;;;;;;;;;;;13.30;99.90;;;;;;5072293;28;19913;-72
2022/07/02 01:36:48;;;;;;;;;;;13.30;99.90;;;;;;5072417;28;19908;-72
2022/07/02 01:39:15;;;;;;;;;;;13.40;99.90;;;;;;5066565;28;19926;-72
2022/07/02 01:41:42;;;;;;;;;;;13.40;99.90;;;;;;5062993;28;19931;-72
2022/07/02 01:44:09;;;;;;;;;;;13.50;99.90;;;;;;5058938;28;20016;-72
2022/07/02 01:46:36;;;;;;;;;;;13.50;99.90;;;;;;5062808;28;19909;-72
2022/07/02 01:49:04;;;;;;;;;;;13.60;99.90;;;;;;5064005;28;19999;-72
2022/07/02 01:51:31;;;;;;;;;;;13.60;99.90;;;;;;5063510;28;19931;-73
2022/07/02 01:53:58;;;;;;;;;;;13.70;99.90;;;;;;5066732;28;19912;-73
2022/07/02 01:56:24;;;;;;;;;;;13.70;99.90;;;;;;5067114;28;19955;-73
2022/07/02 01:58:51;;;;;;;;;;;13.60;99.90;;;;;;5068357;28;19943;-72
2022/07/02 02:01:18;;;;;;;;;;;13.60;99.90;;;;;;5068067;28;19917;-72
2022/07/02 02:03:45;;;;;;;;;;;13.70;99.90;;;;;;5066575;28;19970;-73
2022/07/02 02:06:12;;;;;;;;;;;13.70;99.90;;;;;;5066912;28;19908;-72
2022/07/02 02:08:39;;;;;;;;;;;13.60;99.90;;;;;;5066943;28;20007;-71
2022/07/02 02:11:05;;;;;;;;;;;13.60;99.90;;;;;;5065534;28;19916;-72
2022/07/02 02:13:32;;;;;;;;;;;13.70;99.90;;;;;;5067087;28;19908;-73
2022/07/02 02:15:59;;;;;;;;;;;13.70;99.90;;;;;;5065874;28;19912;-72
2022/07/02 02:18:26;;;;;;;;;;;13.80;99.90;;;;;;5065392;28;19912;-72
2022/07/02 02:20:53;;;;;;;;;;;13.80;99.90;;;;;;5066925;28;20429;-72
2022/07/02 02:23:19;;;;;;;;;;;13.90;99.90;;;;;;5066809;28;19917;-72
2022/07/02 02:25:46;;;;;;;;;;;13.80;99.90;;;;;;5047139;28;20014;-72
2022/07/02 02:28:13;;;;;;;;;;;13.80;99.90;;;;;;5066649;28;19947;-72
2022/07/02 02:30:40;;;;;;;;;;;13.90;99.90;;;;;;5066843;28;19916;-72
2022/07/02 02:33:07;;;;;;;;;;;13.80;99.90;;;;;;5065048;28;19909;-72
2022/07/02 02:35:33;;;;;;;;;;;13.80;99.90;;;;;;5066222;28;19921;-72
2022/07/02 02:38:00;;;;;;;;;;;13.80;99.90;;;;;;5069927;28;20374;-72
2022/07/02 02:40:27;;;;;;;;;;;13.80;99.90;;;;;;5076187;28;19909;-72
2022/07/02 02:42:54;;;;;;;;;;;13.90;99.90;;;;;;5075859;28;19924;-72
2022/07/02 02:45:21;;;;;;;;;;;13.90;99.90;;;;;;5075796;28;19915;-72
2022/07/02 02:47:48;;;;;;;;;;;13.90;99.90;;;;;;5075228;28;19913;-71
2022/07/02 02:50:15;;;;;;;;;;;13.90;99.90;;;;;;5075442;28;20758;-71
2022/07/02 02:52:41;;;;;;;;;;;13.90;99.90;;;;;;5075841;28;20376;-72
2022/07/02 02:55:08;;;;;;;;;;;13.90;99.90;;;;;;5075665;28;20430;-71
2022/07/02 02:57:35;;;;;;;;;;;13.80;99.90;;;;;;5075497;28;20019;-71
2022/07/02 03:00:03;;;;;;;;;;;13.90;99.90;;;;;;5075564;28;19915;-71
2022/07/02 03:02:30;;;;;;;;;;;13.80;99.90;;;;;;5072770;28;20754;-71
2022/07/02 03:04:56;;;;;;;;;;;13.90;99.90;;;;;;5075765;28;19951;-72
2022/07/02 03:07:23;;;;;;;;;;;13.80;99.90;;;;;;5075332;28;20413;-72
2022/07/02 03:09:50;;;;;;;;;;;13.80;99.90;;;;;;5085496;28;19991;-72
2022/07/02 03:12:17;;;;;;;;;;;13.80;99.90;;;;;;5061618;28;19954;-72
2022/07/02 03:14:44;;;;;;;;;;;13.80;99.90;;;;;;5081876;28;19995;-73
2022/07/02 03:17:11;;;;;;;;;;;13.80;99.90;;;;;;5084911;28;19912;-72
2022/07/02 03:19:37;;;;;;;;;;;13.80;99.90;;;;;;5079816;28;19908;-72
2022/07/02 03:22:04;;;;;;;;;;;13.80;99.90;;;;;;5090514;28;20415;-73
2022/07/02 03:24:31;;;;;;;;;;;13.80;99.90;;;;;;5089169;28;19916;-72
2022/07/02 03:26:58;;;;;;;;;;;13.80;99.90;;;;;;5073080;28;20258;-73
2022/07/02 03:29:25;;;;;;;;;;;13.80;99.90;;;;;;5073194;28;19912;-73
2022/07/02 03:31:52;;;;;;;;;;;13.90;99.90;;;;;;5073090;28;20258;-73
2022/07/02 03:34:18;;;;;;;;;;;13.90;99.90;;;;;;5073346;28;19916;-72
2022/07/02 03:36:45;;;;;;;;;;;13.90;99.90;;;;;;5071480;28;20492;-72
2022/07/02 03:39:12;;;;;;;;;;;13.90;99.90;;;;;;5067894;28;19921;-72
2022/07/02 03:41:39;;;;;;;;;;;13.90;99.90;;;;;;5062276;28;19909;-72
2022/07/02 03:44:06;;;;;;;;;;;13.90;99.90;;;;;;5064448;28;19924;-72
2022/07/02 03:46:32;;;;;;;;;;;14.00;99.90;;;;;;5064151;28;19923;-72
2022/07/02 03:48:59;;;;;;;;;;;14.00;99.90;;;;;;5059288;28;19909;-72
2022/07/02 03:51:26;;;;;;;;;;;13.90;99.90;;;;;;5063596;28;19913;-72
2022/07/02 03:53:53;;;;;;;;;;;13.90;99.90;;;;;;5062684;28;20408;-72
2022/07/02 03:56:20;;;;;;;;;;;13.90;99.90;;;;;;5064108;28;19920;-73
2022/07/02 03:58:47;;;;;;;;;;;13.90;99.90;;;;;;5063543;28;20389;-71
2022/07/02 04:01:13;;;;;;;;;;;13.80;99.90;;;;;;5062293;28;19974;-72
2022/07/02 04:03:40;;;;;;;;;;;13.90;99.90;;;;;;5064036;28;19917;-72
2022/07/02 04:06:07;;;;;;;;;;;13.80;99.90;;;;;;5065127;28;19913;-72
2022/07/02 04:08:34;;;;;;;;;;;13.90;99.90;;;;;;5052928;28;19908;-72
2022/07/02 04:11:01;;;;;;;;;;;13.90;99.90;;;;;;5053100;28;20365;-71
2022/07/02 04:13:28;;;;;;;;;;;13.90;99.90;;;;;;5052119;28;20373;-72
2022/07/02 04:15:55;;;;;;;;;;;13.80;99.90;;;;;;5052675;28;19913;-71
2022/07/02 04:18:22;;;;;;;;;;;13.80;99.90;;;;;;5061345;28;19912;-73
2022/07/02 04:20:49;;;;;;;;;;;13.80;99.90;;;;;;5063586;28;19932;-75
2022/07/02 04:23:16;;;;;;;;;;;13.80;99.90;;;;;;5061192;28;19917;-73
2022/07/02 04:25:42;;;;;;;;;;;13.80;99.90;;;;;;5061695;28;19916;-73
2022/07/02 04:28:11;;;;;;;;;;;13.80;99.90;;;;;;5063508;28;19915;-72
2022/07/02 04:30:38;;;;;;;;;;;13.80;99.90;;;;;;5058163;28;19916;-74
2022/07/02 04:33:05;;;;;;;;;;;13.80;99.90;;;;;;5061154;28;20361;-73
2022/07/02 04:35:32;;;;;;;;;;;13.80;99.90;;;;;;5063476;28;19916;-73
2022/07/02 04:37:59;;;;;;;;;;;13.90;99.90;;;;;;5063211;28;19925;-75
2022/07/02 04:40:25;;;;;;;;;;;13.80;99.90;;;;;;5072650;28;19908;-72
2022/07/02 04:42:52;;;;;;;;;;;13.80;99.90;;;;;;5072293;28;19924;-75
2022/07/02 04:45:19;;;;;;;;;;;13.70;99.90;;;;;;5070071;28;20323;-72
2022/07/02 04:47:46;;;;;;;;;;;13.70;99.90;;;;;;5072311;28;19990;-73
2022/07/02 04:50:13;;;;;;;;;;;13.70;99.90;;;;;;5072392;28;19955;-74
2022/07/02 04:52:40;;;;;;;;;;;13.70;99.90;;;;;;5071152;28;20289;-72
2022/07/02 04:55:07;;;;;;;;;;;13.70;99.90;;;;;;5071917;28;20312;-73
2022/07/02 04:57:34;;;;;;;;;;;13.70;99.90;;;;;;5071550;28;20011;-72
2022/07/02 05:00:00;;;;;;;;;;;13.70;99.90;;;;;;5070314;28;19947;-72
2022/07/02 05:02:27;;;;;;;;;;;13.60;99.90;;;;;;5071940;28;19912;-73
2022/07/02 05:04:54;;;;;;;;;;;13.60;99.90;;;;;;5071678;28;19916;-72
2022/07/02 05:07:21;;;;;;;;;;;13.60;99.90;;;;;;5071777;28;19908;-71
2022/07/02 05:09:48;;;;;;;;;;;13.60;99.90;;;;;;5071557;28;19957;-73
2022/07/02 05:12:15;;;;;;;;;;;13.50;99.90;;;;;;5071153;28;20365;-71
2022/07/02 05:14:41;;;;;;;;;;;13.50;99.90;;;;;;5072060;28;19912;-72
2022/07/02 05:17:08;;;;;;;;;;;13.50;99.90;;;;;;5071984;28;20008;-72
2022/07/02 05:19:35;;;;;;;;;;;13.50;99.90;;;;;;5071883;28;19947;-73
2022/07/02 05:22:02;;;;;;;;;;;13.50;99.90;;;;;;5071918;28;19915;-74
2022/07/02 05:24:29;;;;;;;;;;;13.50;99.90;;;;;;5072215;28;19999;-72
2022/07/02 05:26:56;;;;;;;;;;;13.50;99.90;;;;;;5072801;28;19930;-72
2022/07/02 05:29:23;;;;;;;;;;;13.50;99.90;;;;;;5071420;28;19915;-72
2022/07/02 05:31:49;;;;;;;;;;;13.50;99.90;;;;;;5071668;28;19997;-72
2022/07/02 05:34:16;;;;;;;;;;;13.50;99.90;;;;;;5071678;28;19923;-72
2022/07/02 05:36:43;;;;;;;;;;;13.50;99.90;;;;;;5071560;28;20642;-74
2022/07/02 05:39:10;;;;;;;;;;;13.60;99.90;;;;;;5070504;28;19927;-73
2022/07/02 05:41:37;;;;;;;;;;;13.50;99.90;;;;;;5071439;28;19908;-73
2022/07/02 05:44:04;;;;;;;;;;;13.50;99.90;;;;;;5069745;28;19962;-73
2022/07/02 05:46:31;;;;;;;;;;;13.50;99.90;;;;;;5071215;28;20003;-74
2022/07/02 05:48:58;;;;;;;;;;;13.50;99.90;;;;;;5068636;28;19912;-73
2022/07/02 05:51:25;;;;;;;;;;;13.50;99.90;;;;;;5071761;28;19978;-72
2022/07/02 05:53:52;;;;;;;;;;;13.50;99.90;;;;;;5082980;28;19922;-73
2022/07/02 05:56:18;;;;;;;;;;;13.50;99.90;;;;;;5072868;28;19912;-73
2022/07/02 05:58:45;;;;;;;;;;;13.50;99.90;;;;;;5066505;28;20006;-74
2022/07/02 06:01:12;;;;;;;;;;;13.60;99.90;;;;;;5080740;28;19912;-72
2022/07/02 06:03:39;;;;;;;;;;;13.60;99.90;;;;;;5072065;28;19923;-73
2022/07/02 06:08:50;;;;;;;;;;;13.60;99.90;;;;;;5083542;28;19914;-73
2022/07/02 06:11:17;;;;;;;;;;;13.60;99.90;;;;;;5083473;28;19999;-72
2022/07/02 06:13:44;;;;;;;;;;;13.60;99.90;;;;;;5076138;28;19908;-73
2022/07/02 06:16:11;;;;;;;;;;;13.70;99.90;;;;;;5087783;28;20487;-74
2022/07/02 06:18:37;;;;;;;;;;;13.70;99.90;;;;;;5077098;28;20007;-73
2022/07/02 06:21:04;;;;;;;;;;;13.60;99.90;;;;;;5091569;28;19919;-74
2022/07/02 06:23:31;;;;;;;;;;;13.60;99.90;;;;;;5077777;28;19967;-73
2022/07/02 06:25:57;;;;;;;;;;;13.60;99.90;;;;;;5088023;28;19908;-74
2022/07/02 06:28:24;;;;;;;;;;;13.60;99.90;;;;;;5075988;28;19908;-74
2022/07/02 06:30:51;;;;;;;;;;;13.60;99.90;;;;;;5083444;28;19936;-73
2022/07/02 06:33:17;;;;;;;;;;;13.60;99.90;;;;;;5084037;28;19908;-72
2022/07/02 06:35:44;;;;;;;;;;;13.60;99.90;;;;;;5093589;28;19912;-74
2022/07/02 06:38:11;;;;;;;;;;;13.60;99.90;;;;;;5095366;28;19920;-74
2022/07/02 06:40:38;;;;;;;;;;;13.60;99.90;;;;;;5096950;28;19955;-74
2022/07/02 06:43:04;;;;;;;;;;;13.60;99.90;;;;;;5096790;28;20048;-73
2022/07/02 06:45:31;;;;;;;;;;;13.60;99.90;;;;;;5096670;28;20379;-74
2022/07/02 06:47:58;;;;;;;;;;;13.60;99.90;;;;;;5096761;28;19908;-74
2022/07/02 06:50:24;;;;;;;;;;;13.60;99.90;;;;;;5095468;28;19908;-73
2022/07/02 06:52:51;;;;;;;;;;;13.60;99.90;;;;;;5080561;28;20013;-75
2022/07/02 06:55:20;;;;;;;;;;;13.60;99.90;;;;;;5075660;28;19970;-74
2022/07/02 06:57:48;;;;;;;;;;;13.60;99.90;;;;;;5075777;28;19919;-74
2022/07/02 07:00:16;;;;;;;;;;;13.70;99.90;;;;;;5056164;28;19948;-74
2022/07/02 07:02:43;;;;;;;;;;;13.60;99.90;;;;;;5072017;28;19924;-75
2022/07/02 07:05:09;;;;;;;;;;;13.60;99.90;;;;;;5072809;28;19916;-74
2022/07/02 07:07:36;;;;;;;;;;;13.60;99.90;;;;;;5074327;28;19921;-75
2022/07/02 07:10:03;;;;;;;;;;;13.60;99.90;;;;;;5072979;28;19951;-74
2022/07/02 07:12:30;;;;;;;;;;;13.60;99.90;;;;;;5075475;28;19915;-72
2022/07/02 07:15:00;;;;;;;;;;;13.50;99.90;;;;;;5075324;28;19908;-74
2022/07/02 07:17:27;;;;;;;;;;;13.60;99.90;;;;;;5072970;28;20270;-74
2022/07/02 07:19:53;;;;;;;;;;;13.60;99.90;;;;;;5074197;28;19912;-75
2022/07/02 07:22:20;;;;;;;;;;;13.60;99.90;;;;;;5075778;28;19908;-72
2022/07/02 07:24:47;;;;;;;;;;;13.60;99.90;;;;;;5071588;28;19939;-73
2022/07/02 07:27:13;;;;;;;;;;;13.60;99.90;;;;;;5075524;28;20345;-72
2022/07/02 07:29:40;;;;;;;;;;;13.60;99.90;;;;;;5075694;28;19908;-73
2022/07/02 07:32:07;;;;;;;;;;;13.70;99.90;;;;;;5074903;28;19915;-72
2022/07/02 07:34:33;;;;;;;;;;;13.60;99.90;;;;;;5074356;28;19908;-72
2022/07/02 07:37:00;;;;;;;;;;;13.60;99.90;;;;;;5074423;28;19961;-72
2022/07/02 07:39:27;;;;;;;;;;;13.60;99.90;;;;;;5074677;28;19920;-74
2022/07/02 07:41:53;;;;;;;;;;;13.60;99.90;;;;;;5075393;28;19909;-73
2022/07/02 07:44:20;;;;;;;;;;;13.60;99.90;;;;;;5074712;28;19971;-73
2022/07/02 07:46:47;;;;;;;;;;;13.60;99.90;;;;;;5074410;28;19920;-73
2022/07/02 07:49:15;;;;;;;;;;;13.70;99.90;;;;;;5074825;28;20345;-73
2022/07/02 07:51:42;;;;;;;;;;;13.70;99.90;;;;;;5075012;28;20007;-72
2022/07/02 07:54:08;;;;;;;;;;;13.70;99.90;;;;;;5074913;28;19913;-73
2022/07/02 07:56:35;;;;;;;;;;;13.70;99.90;;;;;;5074642;28;19908;-73
2022/07/02 07:59:02;;;;;;;;;;;13.70;99.90;;;;;;5074429;28;20380;-73
2022/07/02 08:01:28;;;;;;;;;;;13.60;99.90;;;;;;5074336;28;20357;-73
2022/07/02 08:03:55;;;;;;;;;;;13.50;99.90;;;;;;5074613;28;19917;-74
2022/07/02 08:06:22;;;;;;;;;;;13.50;99.90;;;;;;5075091;28;19915;-72
2022/07/02 08:08:48;;;;;;;;;;;13.60;99.90;;;;;;5074887;28;19919;-73
2022/07/02 08:11:15;;;;;;;;;;;13.60;99.90;;;;;;5074967;28;20246;-72
2022/07/02 08:13:41;;;;;;;;;;;13.60;99.90;;;;;;5073594;28;19908;-72
2022/07/02 08:16:08;;;;;;;;;;;13.60;99.90;;;;;;5074261;28;19919;-74
2022/07/02 08:18:35;;;;;;;;;;;13.60;99.90;;;;;;5074801;28;19978;-73
2022/07/02 08:21:02;;;;;;;;;;;13.60;99.90;;;;;;5074485;28;19912;-72
2022/07/02 08:23:28;;;;;;;;;;;13.60;99.90;;;;;;5074649;28;19920;-73
2022/07/02 08:25:56;;;;;;;;;;;13.60;99.90;;;;;;5074376;28;20011;-74
2022/07/02 08:28:23;;;;;;;;;;;13.60;99.90;;;;;;5074602;28;20373;-72
2022/07/02 08:30:50;;;;;;;;;;;13.70;99.90;;;;;;5074354;28;19908;-73
2022/07/02 08:33:16;;;;;;;;;;;13.70;99.90;;;;;;5074570;28;19909;-73
2022/07/02 08:35:43;;;;;;;;;;;13.70;99.90;;;;;;5073910;28;19908;-72
2022/07/02 08:38:10;;;;;;;;;;;13.70;99.90;;;;;;5074074;28;19920;-71
2022/07/02 08:40:41;;;;;;;;;;;13.70;99.90;;;;;;5073624;28;20003;-71
2022/07/02 08:43:08;;;;;;;;;;;13.60;99.90;;;;;;5074207;28;19916;-71
2022/07/02 08:45:40;;;;;;;;;;;13.60;99.90;;;;;;5073244;28;20310;-73
2022/07/02 08:48:08;;;;;;;;;;;13.60;99.90;;;;;;5074197;28;19962;-72
2022/07/02 08:50:35;;;;;;;;;;;13.70;99.90;;;;;;5072907;28;19963;-72
2022/07/02 08:53:04;;;;;;;;;;;13.60;99.90;;;;;;5074048;28;20419;-73
2022/07/02 08:55:32;;;;;;;;;;;13.60;99.90;;;;;;5073638;28;19909;-73
2022/07/02 08:57:58;;;;;;;;;;;13.60;99.90;;;;;;5073446;28;20355;-73
2022/07/02 09:00:25;;;;;;;;;;;13.60;99.90;;;;;;5072008;28;19909;-73
2022/07/02 09:02:53;;;;;;;;;;;13.60;99.90;;;;;;5073017;28;19917;-73
2022/07/02 09:05:21;;;;;;;;;;;13.70;99.90;;;;;;5072972;28;19908;-72
2022/07/02 09:07:48;;;;;;;;;;;13.60;99.90;;;;;;5072931;28;19908;-72
2022/07/02 09:10:18;;;;;;;;;;;13.60;99.90;;;;;;5073072;28;19909;-73
2022/07/02 09:12:45;;;;;;;;;;;13.60;99.90;;;;;;5073517;28;19963;-73
2022/07/02 09:15:12;;;;;;;;;;;13.60;99.90;;;;;;5070377;28;20364;-73
2022/07/02 09:17:39;;;;;;;;;;;13.60;99.90;;;;;;5073696;28;19908;-71
2022/07/02 09:20:08;;;;;;;;;;;13.60;99.90;;;;;;5073247;28;20057;-71
2022/07/02 09:22:36;;;;;;;;;;;13.60;99.90;;;;;;5070802;28;20361;-71
2022/07/02 09:25:10;;;;;;;;;;;13.60;99.90;;;;;;5073564;28;19912;-71
2022/07/02 09:27:37;;;;;;;;;;;13.60;99.90;;;;;;5072433;28;19915;-71
2022/07/02 09:30:04;;;;;;;;;;;13.60;99.90;;;;;;5070952;28;19923;-71
2022/07/02 09:32:37;;;;;;;;;;;13.70;99.90;;;;;;5070664;28;20002;-71
2022/07/02 09:35:04;;;;;;;;;;;13.70;99.90;;;;;;5072699;28;19994;-71
2022/07/02 09:37:31;;;;;;;;;;;13.60;99.90;;;;;;5071852;28;20254;-71
2022/07/02 09:40:01;;;;;;;;;;;13.60;99.90;;;;;;5072646;28;19939;-72
2022/07/02 09:42:28;;;;;;;;;;;13.60;99.90;;;;;;5067452;28;19909;-71
2022/07/02 09:44:55;;;;;;;;;;;13.60;99.90;;;;;;5054469;28;20423;-71
2022/07/02 09:47:34;;;;;;;;;;;13.60;99.90;;;;;;5052700;28;19909;-71
2022/07/02 09:50:02;;;;;;;;;;;13.60;99.90;;;;;;5055308;28;19994;-71
2022/07/02 09:52:29;;;;;;;;;;;13.70;99.90;;;;;;5086515;28;20358;-72
2022/07/02 09:54:56;;;;;;;;;;;13.60;99.90;;;;;;5056025;28;19920;-71
2022/07/02 09:57:23;;;;;;;;;;;13.70;99.90;;;;;;5056547;28;20385;-71
2022/07/02 09:59:50;;;;;;;;;;;13.70;99.90;;;;;;5057594;28;20365;-71
2022/07/02 10:02:22;;;;;;;;;;;13.70;99.90;;;;;;5067381;28;19971;-71
2022/07/02 10:04:52;;;;;;;;;;;13.70;99.90;;;;;;5052499;28;19952;-71
2022/07/02 10:07:21;;;;;;;;;;;13.60;99.90;;;;;;5057056;28;19909;-72
2022/07/02 10:09:48;;;;;;;;;;;13.70;99.90;;;;;;5063755;28;19913;-71
2022/07/02 10:12:16;;;;;;;;;;;13.70;99.90;;;;;;5058345;28;19934;-71
2022/07/02 10:14:44;;;;;;;;;;;13.70;99.90;;;;;;5058602;28;19909;-72
2022/07/02 10:17:10;;;;;;;;;;;13.60;99.90;;;;;;5060353;28;19909;-72
2022/07/02 10:19:38;;;;;;;;;;;13.70;99.90;;;;;;5058044;28;19908;-71
2022/07/02 10:22:06;;;;;;;;;;;13.70;99.90;;;;;;5057508;28;19921;-71
2022/07/02 10:24:33;;;;;;;;;;;13.70;99.90;;;;;;5058811;28;19917;-71
2022/07/02 10:27:01;;;;;;;;;;;13.70;99.90;;;;;;5058182;28;20095;-71
2022/07/02 10:29:28;;;;;;;;;;;13.60;99.90;;;;;;5060019;28;20400;-71
2022/07/02 10:32:07;;;;;;;;;;;13.60;99.90;;;;;;5057632;28;19909;-71
2022/07/02 10:34:45;;;;;;;;;;;13.60;99.90;;;;;;5058260;28;19909;-71
2022/07/02 10:37:12;;;;;;;;;;;13.60;99.90;;;;;;5061507;28;20365;-72
2022/07/02 10:39:45;;;;;;;;;;;13.60;99.90;;;;;;5054721;28;19921;-71
2022/07/02 10:42:12;;;;;;;;;;;13.60;99.90;;;;;;5058378;28;19909;-71
2022/07/02 10:44:40;;;;;;;;;;;13.50;99.90;;;;;;5060061;28;19960;-71
2022/07/02 10:47:26;;;;;;;;;;;13.50;99.90;;;;;;5057449;28;19909;-71
2022/07/02 10:49:57;;;;;;;;;;;13.50;99.90;;;;;;5057165;28;19996;-72
2022/07/02 10:52:40;;;;;;;;;;;13.40;99.90;;;;;;5056081;28;20418;-71
2022/07/02 10:55:07;;;;;;;;;;;13.40;99.90;;;;;;5055994;28;19909;-71
2022/07/02 10:57:34;;;;;;;;;;;13.40;99.90;;;;;;5066680;28;19916;-71
2022/07/02 11:00:02;;;;;;;;;;;13.50;99.90;;;;;;5061120;28;19913;-72
2022/07/02 11:02:35;;;;;;;;;;;13.50;99.90;;;;;;5059178;28;19963;-72
2022/07/02 11:05:09;;;;;;;;;;;13.50;99.90;;;;;;5086560;28;19974;-72
2022/07/02 11:07:45;;;;;;;;;;;13.40;99.90;;;;;;5094194;28;19915;-72
2022/07/02 11:10:12;;;;;;;;;;;13.40;99.90;;;;;;5093974;28;19908;-72
2022/07/02 11:12:55;;;;;;;;;;;13.40;99.90;;;;;;5092201;28;20321;-72
2022/07/02 11:15:28;;;;;;;;;;;13.50;99.90;;;;;;5090060;28;20380;-72
2022/07/02 11:17:57;;;;;;;;;;;13.50;99.90;;;;;;5092864;28;20474;-72
2022/07/02 11:20:26;;;;;;;;;;;13.60;99.90;;;;;;5091113;28;19999;-72
2022/07/02 11:22:55;;;;;;;;;;;13.60;99.90;;;;;;5092030;28;19923;-72
2022/07/02 11:25:22;;;;;;;;;;;13.60;99.90;;;;;;5092444;28;20582;-72
2022/07/02 11:28:14;;;;;;;;;;;13.60;99.90;;;;;;5091446;28;19923;-72
2022/07/02 11:30:41;;;;;;;;;;;13.60;99.90;;;;;;5092052;28;19916;-72
2022/07/02 11:33:15;;;;;;;;;;;13.60;99.90;;;;;;5093434;28;19919;-72
2022/07/02 11:35:50;;;;;;;;;;;13.60;99.90;;;;;;5091444;28;20250;-72
2022/07/02 11:38:17;;;;;;;;;;;13.70;99.90;;;;;;5090184;28;19920;-72
2022/07/02 11:40:44;;;;;;;;;;;13.70;99.90;;;;;;5124976;27;19908;-72
2022/07/02 11:43:18;;;;;;;;;;;13.80;99.90;;;;;;5090437;28;19916;-72
2022/07/02 11:45:48;;;;;;;;;;;13.80;99.90;;;;;;5093191;28;19916;-72
2022/07/02 11:48:19;;;;;;;;;;;13.70;99.90;;;;;;5093574;28;20733;-72
2022/07/02 11:50:55;;;;;;;;;;;13.80;99.90;;;;;;5086858;28;19916;-72
2022/07/02 11:53:22;;;;;;;;;;;13.80;99.90;;;;;;5070633;28;19923;-72
2022/07/02 11:55:49;;;;;;;;;;;13.80;99.90;;;;;;5070134;28;19999;-72
2022/07/02 11:58:15;;;;;;;;;;;13.80;99.90;;;;;;5087472;28;19919;-73
2022/07/02 12:00:42;;;;;;;;;;;13.80;99.90;;;;;;5091096;28;20277;-72
2022/07/02 12:03:10;;;;;;;;;;;13.80;99.90;;;;;;5074677;28;20369;-72
2022/07/02 12:05:37;;;;;;;;;;;13.90;99.90;;;;;;5074327;28;20369;-72
2022/07/02 12:08:05;;;;;;;;;;;13.90;99.90;;;;;;5074069;28;20373;-72
2022/07/02 12:10:41;;;;;;;;;;;13.90;99.90;;;;;;5071895;28;19920;-72
2022/07/02 12:13:09;;;;;;;;;;;13.90;99.90;;;;;;5072692;28;20011;-72
2022/07/02 12:15:43;;;;;;;;;;;13.90;99.90;;;;;;5073757;28;19915;-72
2022/07/02 12:18:17;;;;;;;;;;;13.90;99.90;;;;;;5074379;28;19908;-72
2022/07/02 12:20:44;;;;;;;;;;;13.90;99.90;;;;;;5073400;28;19912;-72
2022/07/02 12:23:10;;;;;;;;;;;13.90;99.90;;;;;;5074188;28;19978;-72
2022/07/02 12:25:44;;;;;;;;;;;13.90;99.90;;;;;;5073957;28;19913;-72
2022/07/02 12:30:56;;;;;;;;;;;14.00;99.90;;;;;;5072272;28;19962;-72
2022/07/02 12:33:35;;;;;;;;;;;13.90;99.90;;;;;;5073410;28;20373;-72
2022/07/02 12:36:05;;;;;;;;;;;13.90;99.90;;;;;;5072932;28;19962;-72
2022/07/02 12:38:45;;;;;;;;;;;13.90;99.90;;;;;;5071779;28;19924;-72
2022/07/02 12:41:12;;;;;;;;;;;13.90;99.90;;;;;;5074722;28;19908;-72
2022/07/02 12:43:38;;;;;;;;;;;14.00;99.90;;;;;;5074476;28;19920;-72
2022/07/02 12:46:06;;;;;;;;;;;14.00;99.90;;;;;;5074737;28;19908;-72
2022/07/02 12:48:43;;;;;;;;;;;13.90;99.90;;;;;;5074298;28;19908;-72
2022/07/02 12:51:11;;;;;;;;;;;13.90;99.90;;;;;;5074381;28;19908;-72
2022/07/02 12:53:38;;;;;;;;;;;13.90;99.90;;;;;;5074298;28;20269;-72
2022/07/02 12:56:06;;;;;;;;;;;13.90;99.90;;;;;;5056271;28;19909;-72
2022/07/02 12:58:33;;;;;;;;;;;13.90;99.90;;;;;;5074490;28;20360;-72
2022/07/02 13:01:01;;;;;;;;;;;13.90;99.90;;;;;;5074303;28;19915;-72
2022/07/02 13:03:28;;;;;;;;;;;13.90;99.90;;;;;;5074478;28;19916;-71
2022/07/02 13:05:56;;;;;;;;;;;13.80;99.90;;;;;;5074238;28;20357;-72
2022/07/02 13:08:23;;;;;;;;;;;13.80;99.90;;;;;;5074249;28;19915;-72
2022/07/02 13:10:51;;;;;;;;;;;13.80;99.90;;;;;;5074545;28;19916;-72
2022/07/02 13:13:18;;;;;;;;;;;13.80;99.90;;;;;;5074361;28;19909;-72
2022/07/02 13:15:45;;;;;;;;;;;13.80;99.90;;;;;;5055953;28;20025;-72
2022/07/02 13:18:13;;;;;;;;;;;13.70;99.90;;;;;;5074038;28;20043;-72
2022/07/02 13:20:40;;;;;;;;;;;13.60;99.90;;;;;;5074014;28;19909;-72
2022/07/02 13:23:07;;;;;;;;;;;13.60;99.90;;;;;;5073853;28;20006;-72
2022/07/02 13:25:34;;;;;;;;;;;13.60;99.90;;;;;;5073739;28;19908;-72
2022/07/02 13:28:01;;;;;;;;;;;13.60;99.90;;;;;;5073920;28;19966;-71
2022/07/02 13:30:28;;;;;;;;;;;13.60;99.90;;;;;;5055960;28;19913;-71
2022/07/02 13:32:54;;;;;;;;;;;13.50;99.90;;;;;;5073789;28;20003;-71
2022/07/02 13:35:21;;;;;;;;;;;13.60;99.90;;;;;;5073847;28;19909;-71
2022/07/02 13:37:48;;;;;;;;;;;13.60;99.90;;;;;;5073676;28;19931;-72
2022/07/02 13:40:17;;;;;;;;;;;13.60;99.90;;;;;;5074019;28;19951;-72
2022/07/02 13:42:44;;;;;;;;;;;13.50;99.90;;;;;;5073471;28;20276;-71
2022/07/02 13:45:12;;;;;;;;;;;13.50;99.90;;;;;;5076139;28;19991;-72
2022/07/02 13:47:39;;;;;;;;;;;13.50;99.90;;;;;;5080331;28;19913;-71
2022/07/02 13:50:06;;;;;;;;;;;13.50;99.90;;;;;;5080401;28;19931;-71
2022/07/02 13:52:33;;;;;;;;;;;13.50;99.90;;;;;;5061016;28;19955;-71
2022/07/02 13:55:00;;;;;;;;;;;13.50;99.90;;;;;;5059846;28;20327;-71
2022/07/02 13:57:27;;;;;;;;;;;13.50;99.90;;;;;;5059374;28;20003;-71
2022/07/02 13:59:53;;;;;;;;;;;13.50;99.90;;;;;;5060284;28;19916;-71
2022/07/02 14:02:20;;;;;;;;;;;13.50;99.90;;;;;;5060017;28;19932;-71
2022/07/02 14:04:48;;;;;;;;;;;13.50;99.90;;;;;;5060278;28;19957;-71
2022/07/02 14:07:15;;;;;;;;;;;13.50;99.90;;;;;;5060303;28;19909;-71
2022/07/02 14:09:42;;;;;;;;;;;13.50;99.90;;;;;;5060616;28;19909;-71
2022/07/02 14:12:09;;;;;;;;;;;13.50;99.90;;;;;;5060108;28;19909;-71
2022/07/02 14:14:37;;;;;;;;;;;13.50;99.90;;;;;;5060166;28;19916;-71
2022/07/02 14:17:04;;;;;;;;;;;13.50;99.90;;;;;;5060031;28;20354;-72
2022/07/02 14:19:32;;;;;;;;;;;13.50;99.90;;;;;;5042139;28;19912;-71
2022/07/02 14:21:59;;;;;;;;;;;13.50;99.90;;;;;;5060076;28;19913;-71
2022/07/02 14:24:26;;;;;;;;;;;13.50;99.90;;;;;;5059903;28;20365;-71
2022/07/02 14:26:53;;;;;;;;;;;13.50;99.90;;;;;;5059851;28;20382;-72
2022/07/02 14:29:20;;;;;;;;;;;13.50;99.90;;;;;;5060078;28;19955;-72